sensor_id;sensor_type;location;lat;lon;timestamp;temperature;humidity
5520;DHT22;2782;52.362;10.012;2022-12-07T00:00:18;18.10;58.40
5520;DHT22;2782;52.362;10.012;2022-12-07T00:01:22;18.10;58.50
5520;DHT22;2782;52.362;10.012;2022-12-07T00:02:24;18.10;58.40
5520;DHT22;2782;52.362;10.012;2022-12-07T00:03:25;18.10;58.50
5520;DHT22;2782;52.362;10.012;2022-12-07T00:04:26;18.10;58.50
5520;DHT22;2782;52.362;10.012;2022-12-07T00:05:29;18.10;58.50
5520;DHT22;2782;52.362;10.012;2022-12-07T00:06:31;18.00;58.50
5520;DHT22;2782;52.362;10.012;2022-12-07T00:07:33;18.10;58.50
5520;DHT22;2782;52.362;10.012;2022-12-07T00:08:34;18.00;58.40
5520;DHT22;2782;52.362;10.012;2022-12-07T00:09:36;18.10;58.50
5520;DHT22;2782;52.362;10.012;2022-12-07T00:10:39;18.00;58.40
5520;DHT22;2782;52.362;10.012;2022-12-07T00:11:40;18.00;58.40
5520;DHT22;2782;52.362;10.012;2022-12-07T00:12:42;18.00;58.40
5520;DHT22;2782;52.362;10.012;2022-12-07T00:13:43;18.00;58.40
5520;DHT22;2782;52.362;10.012;2022-12-07T00:14:45;18.00;58.50
5520;DHT22;2782;52.362;10.012;2022-12-07T00:15:47;18.00;58.50
5520;DHT22;2782;52.362;10.012;2022-12-07T00:16:51;18.00;58.50
5520;DHT22;2782;52.362;10.012;2022-12-07T00:17:52;18.00;58.60
5520;DHT22;2782;52.362;10.012;2022-12-07T00:18:54;18.00;58.50
5520;DHT22;2782;52.362;10.012;2022-12-07T00:19:56;18.00;58.60
5520;DHT22;2782;52.362;10.012;2022-12-07T00:20:59;18.00;58.60
5520;DHT22;2782;52.362;10.012;2022-12-07T00:22:02;17.90;58.40
5520;DHT22;2782;52.362;10.012;2022-12-07T00:23:04;18.00;58.50
5520;DHT22;2782;52.362;10.012;2022-12-07T00:24:05;17.90;58.50
5520;DHT22;2782;52.362;10.012;2022-12-07T00:25:07;17.90;58.60
5520;DHT22;2782;52.362;10.012;2022-12-07T00:26:10;17.90;58.50
5520;DHT22;2782;52.362;10.012;2022-12-07T00:27:12;17.90;58.50
5520;DHT22;2782;52.362;10.012;2022-12-07T00:28:13;17.90;58.60
5520;DHT22;2782;52.362;10.012;2022-12-07T00:29:17;17.90;58.60
5520;DHT22;2782;52.362;10.012;2022-12-07T00:30:18;17.90;58.60
5520;DHT22;2782;52.362;10.012;2022-12-07T00:31:22;17.90;58.50
5520;DHT22;2782;52.362;10.012;2022-12-07T00:32:24;17.90;58.60
5520;DHT22;2782;52.362;10.012;2022-12-07T00:33:26;17.90;58.60
5520;DHT22;2782;52.362;10.012;2022-12-07T00:34:29;17.90;58.60
5520;DHT22;2782;52.362;10.012;2022-12-07T00:35:31;17.90;58.60
5520;DHT22;2782;52.362;10.012;2022-12-07T00:36:32;17.90;58.60
5520;DHT22;2782;52.362;10.012;2022-12-07T00:37:33;17.80;58.50
5520;DHT22;2782;52.362;10.012;2022-12-07T00:38:37;17.80;58.50
5520;DHT22;2782;52.362;10.012;2022-12-07T00:39:39;17.90;58.60
5520;DHT22;2782;52.362;10.012;2022-12-07T00:40:39;17.80;58.50
5520;DHT22;2782;52.362;10.012;2022-12-07T00:41:41;17.80;58.60
5520;DHT22;2782;52.362;10.012;2022-12-07T00:42:42;17.80;58.60
5520;DHT22;2782;52.362;10.012;2022-12-07T00:43:45;17.80;58.60
5520;DHT22;2782;52.362;10.012;2022-12-07T00:44:45;17.80;58.70
5520;DHT22;2782;52.362;10.012;2022-12-07T00:45:47;17.80;58.80
5520;DHT22;2782;52.362;10.012;2022-12-07T00:46:48;17.80;58.70
5520;DHT22;2782;52.362;10.012;2022-12-07T00:47:51;17.80;58.80
5520;DHT22;2782;52.362;10.012;2022-12-07T00:48:52;17.80;59.00
5520;DHT22;2782;52.362;10.012;2022-12-07T00:49:54;17.80;58.90
5520;DHT22;2782;52.362;10.012;2022-12-07T00:50:55;17.80;59.00
5520;DHT22;2782;52.362;10.012;2022-12-07T00:51:57;17.80;59.00
5520;DHT22;2782;52.362;10.012;2022-12-07T00:52:59;17.80;59.00
5520;DHT22;2782;52.362;10.012;2022-12-07T00:53:59;17.80;59.00
5520;DHT22;2782;52.362;10.012;2022-12-07T00:55:01;17.70;58.90
5520;DHT22;2782;52.362;10.012;2022-12-07T00:56:05;17.80;59.10
5520;DHT22;2782;52.362;10.012;2022-12-07T00:57:07;17.70;59.10
5520;DHT22;2782;52.362;10.012;2022-12-07T00:58:09;17.80;59.10
5520;DHT22;2782;52.362;10.012;2022-12-07T00:59:12;17.70;59.10
5520;DHT22;2782;52.362;10.012;2022-12-07T01:00:15;17.70;59.20
5520;DHT22;2782;52.362;10.012;2022-12-07T01:01:15;17.70;59.20
5520;DHT22;2782;52.362;10.012;2022-12-07T01:02:17;17.70;59.20
5520;DHT22;2782;52.362;10.012;2022-12-07T01:03:19;17.70;59.30
5520;DHT22;2782;52.362;10.012;2022-12-07T01:04:21;17.70;59.20
5520;DHT22;2782;52.362;10.012;2022-12-07T01:05:22;17.70;59.40
5520;DHT22;2782;52.362;10.012;2022-12-07T01:06:24;17.70;59.60
5520;DHT22;2782;52.362;10.012;2022-12-07T01:07:25;17.70;59.50
5520;DHT22;2782;52.362;10.012;2022-12-07T01:08:28;17.70;59.50
5520;DHT22;2782;52.362;10.012;2022-12-07T01:09:28;17.70;59.40
5520;DHT22;2782;52.362;10.012;2022-12-07T01:10:30;17.60;59.30
5520;DHT22;2782;52.362;10.012;2022-12-07T01:11:32;17.70;59.50
5520;DHT22;2782;52.362;10.012;2022-12-07T01:12:33;17.60;59.30
5520;DHT22;2782;52.362;10.012;2022-12-07T01:13:35;17.70;59.50
5520;DHT22;2782;52.362;10.012;2022-12-07T01:14:37;17.70;59.60
5520;DHT22;2782;52.362;10.012;2022-12-07T01:15:39;17.60;59.50
5520;DHT22;2782;52.362;10.012;2022-12-07T01:16:40;17.60;59.50
5520;DHT22;2782;52.362;10.012;2022-12-07T01:17:41;17.70;59.60
5520;DHT22;2782;52.362;10.012;2022-12-07T01:18:46;17.60;59.40
5520;DHT22;2782;52.362;10.012;2022-12-07T01:19:47;17.60;59.60
5520;DHT22;2782;52.362;10.012;2022-12-07T01:20:57;17.60;59.50
5520;DHT22;2782;52.362;10.012;2022-12-07T01:21:58;17.60;59.60
5520;DHT22;2782;52.362;10.012;2022-12-07T01:23:00;17.60;59.70
5520;DHT22;2782;52.362;10.012;2022-12-07T01:24:01;17.60;59.70
5520;DHT22;2782;52.362;10.012;2022-12-07T01:25:03;17.60;59.60
5520;DHT22;2782;52.362;10.012;2022-12-07T01:26:06;17.60;59.70
5520;DHT22;2782;52.362;10.012;2022-12-07T01:27:08;17.60;59.60
5520;DHT22;2782;52.362;10.012;2022-12-07T01:28:08;17.60;59.80
5520;DHT22;2782;52.362;10.012;2022-12-07T01:29:10;17.60;59.70
5520;DHT22;2782;52.362;10.012;2022-12-07T01:30:12;17.50;59.70
5520;DHT22;2782;52.362;10.012;2022-12-07T01:31:16;17.60;59.90
5520;DHT22;2782;52.362;10.012;2022-12-07T01:32:17;17.60;59.90
5520;DHT22;2782;52.362;10.012;2022-12-07T01:33:19;17.50;59.80
5520;DHT22;2782;52.362;10.012;2022-12-07T01:34:20;17.50;59.80
5520;DHT22;2782;52.362;10.012;2022-12-07T01:35:22;17.50;59.80
5520;DHT22;2782;52.362;10.012;2022-12-07T01:36:25;17.50;59.80
5520;DHT22;2782;52.362;10.012;2022-12-07T01:37:27;17.50;59.80
5520;DHT22;2782;52.362;10.012;2022-12-07T01:38:28;17.50;59.90
5520;DHT22;2782;52.362;10.012;2022-12-07T01:39:30;17.60;59.80
5520;DHT22;2782;52.362;10.012;2022-12-07T01:40:30;17.50;59.80
5520;DHT22;2782;52.362;10.012;2022-12-07T01:41:35;17.50;59.90
5520;DHT22;2782;52.362;10.012;2022-12-07T01:42:36;17.50;60.00
5520;DHT22;2782;52.362;10.012;2022-12-07T01:45:40;17.50;60.00
5520;DHT22;2782;52.362;10.012;2022-12-07T01:46:42;17.50;60.00
5520;DHT22;2782;52.362;10.012;2022-12-07T01:47:48;17.50;60.10
5520;DHT22;2782;52.362;10.012;2022-12-07T01:48:50;17.50;60.10
5520;DHT22;2782;52.362;10.012;2022-12-07T01:49:52;17.50;60.10
5520;DHT22;2782;52.362;10.012;2022-12-07T01:50:55;17.50;60.10
5520;DHT22;2782;52.362;10.012;2022-12-07T01:52:13;17.40;60.00
5520;DHT22;2782;52.362;10.012;2022-12-07T01:53:15;17.40;60.00
5520;DHT22;2782;52.362;10.012;2022-12-07T01:54:17;17.40;60.10
5520;DHT22;2782;52.362;10.012;2022-12-07T01:55:19;17.40;60.00
5520;DHT22;2782;52.362;10.012;2022-12-07T01:56:24;17.40;60.00
5520;DHT22;2782;52.362;10.012;2022-12-07T01:57:27;17.40;60.00
5520;DHT22;2782;52.362;10.012;2022-12-07T01:58:28;17.40;60.10
5520;DHT22;2782;52.362;10.012;2022-12-07T01:59:30;17.40;60.10
5520;DHT22;2782;52.362;10.012;2022-12-07T02:00:31;17.40;60.10
5520;DHT22;2782;52.362;10.012;2022-12-07T02:01:34;17.40;60.10
5520;DHT22;2782;52.362;10.012;2022-12-07T02:02:37;17.40;60.10
5520;DHT22;2782;52.362;10.012;2022-12-07T02:03:42;17.40;60.10
5520;DHT22;2782;52.362;10.012;2022-12-07T02:04:43;17.40;60.10
5520;DHT22;2782;52.362;10.012;2022-12-07T02:05:46;17.40;60.10
5520;DHT22;2782;52.362;10.012;2022-12-07T02:06:48;17.40;60.10
5520;DHT22;2782;52.362;10.012;2022-12-07T02:07:51;17.40;60.10
5520;DHT22;2782;52.362;10.012;2022-12-07T02:08:53;17.40;60.10
5520;DHT22;2782;52.362;10.012;2022-12-07T02:09:55;17.40;60.10
5520;DHT22;2782;52.362;10.012;2022-12-07T02:10:55;17.40;60.10
5520;DHT22;2782;52.362;10.012;2022-12-07T02:11:57;17.40;60.10
5520;DHT22;2782;52.362;10.012;2022-12-07T02:13:01;17.40;60.10
5520;DHT22;2782;52.362;10.012;2022-12-07T02:14:03;17.40;60.10
5520;DHT22;2782;52.362;10.012;2022-12-07T02:15:04;17.40;60.10
5520;DHT22;2782;52.362;10.012;2022-12-07T02:16:18;17.30;60.00
5520;DHT22;2782;52.362;10.012;2022-12-07T02:17:28;17.30;60.00
5520;DHT22;2782;52.362;10.012;2022-12-07T02:18:43;17.30;60.00
5520;DHT22;2782;52.362;10.012;2022-12-07T02:20:02;17.30;60.00
5520;DHT22;2782;52.362;10.012;2022-12-07T02:21:08;17.40;60.10
5520;DHT22;2782;52.362;10.012;2022-12-07T02:22:23;17.30;60.00
5520;DHT22;2782;52.362;10.012;2022-12-07T02:25:13;17.30;60.00
5520;DHT22;2782;52.362;10.012;2022-12-07T02:26:43;17.30;60.00
5520;DHT22;2782;52.362;10.012;2022-12-07T02:27:50;17.30;59.90
5520;DHT22;2782;52.362;10.012;2022-12-07T02:29:10;17.30;60.00
5520;DHT22;2782;52.362;10.012;2022-12-07T02:30:14;17.30;60.00
5520;DHT22;2782;52.362;10.012;2022-12-07T02:31:19;17.30;60.00
5520;DHT22;2782;52.362;10.012;2022-12-07T02:32:24;17.20;60.00
5520;DHT22;2782;52.362;10.012;2022-12-07T02:33:31;17.30;60.10
5520;DHT22;2782;52.362;10.012;2022-12-07T02:34:39;17.20;60.10
5520;DHT22;2782;52.362;10.012;2022-12-07T02:35:46;17.20;60.00
5520;DHT22;2782;52.362;10.012;2022-12-07T02:36:54;17.30;60.10
5520;DHT22;2782;52.362;10.012;2022-12-07T02:38:02;17.30;60.00
5520;DHT22;2782;52.362;10.012;2022-12-07T02:39:08;17.30;60.00
5520;DHT22;2782;52.362;10.012;2022-12-07T02:40:17;17.30;60.00
5520;DHT22;2782;52.362;10.012;2022-12-07T02:41:23;17.30;59.90
5520;DHT22;2782;52.362;10.012;2022-12-07T02:42:30;17.30;60.00
5520;DHT22;2782;52.362;10.012;2022-12-07T02:43:35;17.30;59.90
5520;DHT22;2782;52.362;10.012;2022-12-07T02:44:40;17.30;59.90
5520;DHT22;2782;52.362;10.012;2022-12-07T02:45:44;17.30;59.90
5520;DHT22;2782;52.362;10.012;2022-12-07T02:46:50;17.30;59.80
5520;DHT22;2782;52.362;10.012;2022-12-07T02:47:56;17.30;59.90
5520;DHT22;2782;52.362;10.012;2022-12-07T02:48:59;17.30;59.90
5520;DHT22;2782;52.362;10.012;2022-12-07T02:50:03;17.30;59.80
5520;DHT22;2782;52.362;10.012;2022-12-07T02:51:04;17.30;59.80
5520;DHT22;2782;52.362;10.012;2022-12-07T02:52:06;17.30;59.80
5520;DHT22;2782;52.362;10.012;2022-12-07T02:53:28;17.30;59.70
5520;DHT22;2782;52.362;10.012;2022-12-07T02:54:30;17.30;59.80
5520;DHT22;2782;52.362;10.012;2022-12-07T02:55:35;17.30;59.70
5520;DHT22;2782;52.362;10.012;2022-12-07T02:56:43;17.30;59.70
5520;DHT22;2782;52.362;10.012;2022-12-07T02:57:54;17.30;59.70
5520;DHT22;2782;52.362;10.012;2022-12-07T02:59:07;17.30;59.70
5520;DHT22;2782;52.362;10.012;2022-12-07T03:00:14;17.30;59.70
5520;DHT22;2782;52.362;10.012;2022-12-07T03:01:26;17.30;59.70
5520;DHT22;2782;52.362;10.012;2022-12-07T03:02:43;17.30;59.70
5520;DHT22;2782;52.362;10.012;2022-12-07T03:03:53;17.30;59.70
5520;DHT22;2782;52.362;10.012;2022-12-07T03:05:10;17.30;60.30
5520;DHT22;2782;52.362;10.012;2022-12-07T03:06:17;17.30;59.70
5520;DHT22;2782;52.362;10.012;2022-12-07T03:07:28;17.30;59.70
5520;DHT22;2782;52.362;10.012;2022-12-07T03:08:44;17.30;59.70
5520;DHT22;2782;52.362;10.012;2022-12-07T03:09:51;17.30;59.70
5520;DHT22;2782;52.362;10.012;2022-12-07T03:10:58;17.30;59.70
5520;DHT22;2782;52.362;10.012;2022-12-07T03:12:07;17.30;59.70
5520;DHT22;2782;52.362;10.012;2022-12-07T03:13:18;17.30;59.70
5520;DHT22;2782;52.362;10.012;2022-12-07T03:14:25;17.30;59.70
5520;DHT22;2782;52.362;10.012;2022-12-07T03:15:38;17.30;59.70
5520;DHT22;2782;52.362;10.012;2022-12-07T03:16:44;17.30;59.70
5520;DHT22;2782;52.362;10.012;2022-12-07T03:17:49;17.30;59.70
5520;DHT22;2782;52.362;10.012;2022-12-07T03:18:55;17.20;59.60
5520;DHT22;2782;52.362;10.012;2022-12-07T03:20:00;17.30;59.70
5520;DHT22;2782;52.362;10.012;2022-12-07T03:21:06;17.20;59.60
5520;DHT22;2782;52.362;10.012;2022-12-07T03:22:11;17.30;59.70
5520;DHT22;2782;52.362;10.012;2022-12-07T03:23:13;17.20;59.60
5520;DHT22;2782;52.362;10.012;2022-12-07T03:24:19;17.20;59.60
5520;DHT22;2782;52.362;10.012;2022-12-07T03:25:21;17.30;59.70
5520;DHT22;2782;52.362;10.012;2022-12-07T03:26:28;17.20;59.50
5520;DHT22;2782;52.362;10.012;2022-12-07T03:27:34;17.20;59.50
5520;DHT22;2782;52.362;10.012;2022-12-07T03:28:41;17.20;59.50
5520;DHT22;2782;52.362;10.012;2022-12-07T03:29:45;17.20;59.50
5520;DHT22;2782;52.362;10.012;2022-12-07T03:30:53;17.20;59.50
5520;DHT22;2782;52.362;10.012;2022-12-07T03:32:00;17.20;59.50
5520;DHT22;2782;52.362;10.012;2022-12-07T03:33:05;17.20;59.50
5520;DHT22;2782;52.362;10.012;2022-12-07T03:34:11;17.20;59.50
5520;DHT22;2782;52.362;10.012;2022-12-07T03:35:17;17.20;59.50
5520;DHT22;2782;52.362;10.012;2022-12-07T03:36:23;17.20;59.40
5520;DHT22;2782;52.362;10.012;2022-12-07T03:37:31;17.20;59.50
5520;DHT22;2782;52.362;10.012;2022-12-07T03:38:38;17.20;59.40
5520;DHT22;2782;52.362;10.012;2022-12-07T03:39:45;17.20;59.40
5520;DHT22;2782;52.362;10.012;2022-12-07T03:40:54;17.20;59.40
5520;DHT22;2782;52.362;10.012;2022-12-07T03:41:55;17.20;59.40
5520;DHT22;2782;52.362;10.012;2022-12-07T03:42:59;17.20;59.40
5520;DHT22;2782;52.362;10.012;2022-12-07T03:44:02;17.20;59.40
5520;DHT22;2782;52.362;10.012;2022-12-07T03:45:04;17.20;59.50
5520;DHT22;2782;52.362;10.012;2022-12-07T03:46:17;17.20;60.00
5520;DHT22;2782;52.362;10.012;2022-12-07T03:47:26;17.20;59.40
5520;DHT22;2782;52.362;10.012;2022-12-07T03:48:34;17.20;59.40
5520;DHT22;2782;52.362;10.012;2022-12-07T03:49:41;17.20;59.40
5520;DHT22;2782;52.362;10.012;2022-12-07T03:50:52;17.10;59.30
5520;DHT22;2782;52.362;10.012;2022-12-07T03:51:58;17.10;59.30
5520;DHT22;2782;52.362;10.012;2022-12-07T03:53:05;17.20;59.40
5520;DHT22;2782;52.362;10.012;2022-12-07T03:54:11;17.10;59.30
5520;DHT22;2782;52.362;10.012;2022-12-07T03:55:17;17.10;59.30
5520;DHT22;2782;52.362;10.012;2022-12-07T03:56:20;17.10;59.30
5520;DHT22;2782;52.362;10.012;2022-12-07T03:57:24;17.10;59.30
5520;DHT22;2782;52.362;10.012;2022-12-07T03:58:26;17.10;59.30
5520;DHT22;2782;52.362;10.012;2022-12-07T03:59:28;17.10;59.40
5520;DHT22;2782;52.362;10.012;2022-12-07T04:00:31;17.10;59.40
5520;DHT22;2782;52.362;10.012;2022-12-07T04:01:33;17.10;59.30
5520;DHT22;2782;52.362;10.012;2022-12-07T04:02:35;17.10;59.30
5520;DHT22;2782;52.362;10.012;2022-12-07T04:03:36;17.10;59.30
5520;DHT22;2782;52.362;10.012;2022-12-07T04:04:38;17.10;59.30
5520;DHT22;2782;52.362;10.012;2022-12-07T04:05:39;17.10;59.30
5520;DHT22;2782;52.362;10.012;2022-12-07T04:06:41;17.10;59.30
5520;DHT22;2782;52.362;10.012;2022-12-07T04:07:42;17.10;59.30
5520;DHT22;2782;52.362;10.012;2022-12-07T04:08:43;17.10;59.30
5520;DHT22;2782;52.362;10.012;2022-12-07T04:09:44;17.10;59.30
5520;DHT22;2782;52.362;10.012;2022-12-07T04:10:46;17.10;59.30
5520;DHT22;2782;52.362;10.012;2022-12-07T04:11:47;17.10;59.30
5520;DHT22;2782;52.362;10.012;2022-12-07T04:12:48;17.10;59.30
5520;DHT22;2782;52.362;10.012;2022-12-07T04:13:49;17.10;59.20
5520;DHT22;2782;52.362;10.012;2022-12-07T04:15:09;17.10;59.30
5520;DHT22;2782;52.362;10.012;2022-12-07T04:16:11;17.10;59.20
5520;DHT22;2782;52.362;10.012;2022-12-07T04:17:13;17.10;59.20
5520;DHT22;2782;52.362;10.012;2022-12-07T04:18:14;17.10;59.20
5520;DHT22;2782;52.362;10.012;2022-12-07T04:19:16;17.00;59.20
5520;DHT22;2782;52.362;10.012;2022-12-07T04:20:18;17.00;59.10
5520;DHT22;2782;52.362;10.012;2022-12-07T04:21:18;17.00;59.10
5520;DHT22;2782;52.362;10.012;2022-12-07T04:22:20;17.00;59.10
5520;DHT22;2782;52.362;10.012;2022-12-07T04:23:21;17.10;59.20
5520;DHT22;2782;52.362;10.012;2022-12-07T04:24:23;17.00;59.10
5520;DHT22;2782;52.362;10.012;2022-12-07T04:25:24;17.00;59.10
5520;DHT22;2782;52.362;10.012;2022-12-07T04:26:25;17.10;59.10
5520;DHT22;2782;52.362;10.012;2022-12-07T04:27:27;17.10;59.20
5520;DHT22;2782;52.362;10.012;2022-12-07T04:28:29;17.00;59.10
5520;DHT22;2782;52.362;10.012;2022-12-07T04:29:29;17.10;59.10
5520;DHT22;2782;52.362;10.012;2022-12-07T04:30:31;17.10;59.10
5520;DHT22;2782;52.362;10.012;2022-12-07T04:31:32;17.10;59.10
5520;DHT22;2782;52.362;10.012;2022-12-07T04:32:35;17.00;59.00
5520;DHT22;2782;52.362;10.012;2022-12-07T04:33:36;17.10;59.10
5520;DHT22;2782;52.362;10.012;2022-12-07T04:34:38;17.00;59.00
5520;DHT22;2782;52.362;10.012;2022-12-07T04:35:39;17.00;59.00
5520;DHT22;2782;52.362;10.012;2022-12-07T04:36:43;17.00;59.00
5520;DHT22;2782;52.362;10.012;2022-12-07T04:37:44;17.00;59.00
5520;DHT22;2782;52.362;10.012;2022-12-07T04:38:46;17.00;59.00
5520;DHT22;2782;52.362;10.012;2022-12-07T04:39:46;17.00;59.00
5520;DHT22;2782;52.362;10.012;2022-12-07T04:40:48;17.00;59.00
5520;DHT22;2782;52.362;10.012;2022-12-07T04:41:49;17.00;59.00
5520;DHT22;2782;52.362;10.012;2022-12-07T04:42:50;17.00;59.00
5520;DHT22;2782;52.362;10.012;2022-12-07T04:43:53;17.00;59.00
5520;DHT22;2782;52.362;10.012;2022-12-07T04:44:55;17.00;59.00
5520;DHT22;2782;52.362;10.012;2022-12-07T04:45:56;17.00;59.00
5520;DHT22;2782;52.362;10.012;2022-12-07T04:46:58;17.00;59.00
5520;DHT22;2782;52.362;10.012;2022-12-07T04:48:00;17.00;59.00
5520;DHT22;2782;52.362;10.012;2022-12-07T04:49:02;17.00;59.00
5520;DHT22;2782;52.362;10.012;2022-12-07T04:50:03;17.00;59.00
5520;DHT22;2782;52.362;10.012;2022-12-07T04:51:05;17.00;59.00
5520;DHT22;2782;52.362;10.012;2022-12-07T04:52:06;17.00;59.00
5520;DHT22;2782;52.362;10.012;2022-12-07T04:53:07;16.90;58.90
5520;DHT22;2782;52.362;10.012;2022-12-07T04:54:08;17.00;59.10
5520;DHT22;2782;52.362;10.012;2022-12-07T04:55:10;17.00;59.10
5520;DHT22;2782;52.362;10.012;2022-12-07T04:56:12;17.00;59.20
5520;DHT22;2782;52.362;10.012;2022-12-07T04:57:13;17.00;59.20
5520;DHT22;2782;52.362;10.012;2022-12-07T04:58:15;17.00;59.10
5520;DHT22;2782;52.362;10.012;2022-12-07T04:59:16;17.00;59.10
5520;DHT22;2782;52.362;10.012;2022-12-07T05:00:18;17.00;59.10
5520;DHT22;2782;52.362;10.012;2022-12-07T05:01:20;17.00;59.10
5520;DHT22;2782;52.362;10.012;2022-12-07T05:02:22;17.00;59.10
5520;DHT22;2782;52.362;10.012;2022-12-07T05:03:24;17.00;59.10
5520;DHT22;2782;52.362;10.012;2022-12-07T05:04:26;17.00;59.10
5520;DHT22;2782;52.362;10.012;2022-12-07T05:05:26;17.00;59.10
5520;DHT22;2782;52.362;10.012;2022-12-07T05:06:28;17.00;59.10
5520;DHT22;2782;52.362;10.012;2022-12-07T05:07:29;17.00;59.10
5520;DHT22;2782;52.362;10.012;2022-12-07T05:08:32;17.00;59.10
5520;DHT22;2782;52.362;10.012;2022-12-07T05:09:32;17.10;59.30
5520;DHT22;2782;52.362;10.012;2022-12-07T05:10:34;17.00;59.20
5520;DHT22;2782;52.362;10.012;2022-12-07T05:11:35;17.00;59.30
5520;DHT22;2782;52.362;10.012;2022-12-07T05:12:39;17.00;59.30
5520;DHT22;2782;52.362;10.012;2022-12-07T05:13:41;17.10;59.40
5520;DHT22;2782;52.362;10.012;2022-12-07T05:14:41;17.00;59.40
5520;DHT22;2782;52.362;10.012;2022-12-07T05:15:43;17.00;59.50
5520;DHT22;2782;52.362;10.012;2022-12-07T05:16:45;17.10;59.70
5520;DHT22;2782;52.362;10.012;2022-12-07T05:17:47;17.10;59.80
5520;DHT22;2782;52.362;10.012;2022-12-07T05:18:50;17.00;59.80
5520;DHT22;2782;52.362;10.012;2022-12-07T05:19:51;17.10;59.90
5520;DHT22;2782;52.362;10.012;2022-12-07T05:20:53;17.10;59.90
5520;DHT22;2782;52.362;10.012;2022-12-07T05:21:54;17.10;59.90
5520;DHT22;2782;52.362;10.012;2022-12-07T05:22:55;17.10;59.90
5520;DHT22;2782;52.362;10.012;2022-12-07T05:23:58;17.10;59.90
5520;DHT22;2782;52.362;10.012;2022-12-07T05:25:00;17.10;59.90
5520;DHT22;2782;52.362;10.012;2022-12-07T05:26:01;17.10;59.90
5520;DHT22;2782;52.362;10.012;2022-12-07T05:27:03;17.10;59.80
5520;DHT22;2782;52.362;10.012;2022-12-07T05:28:05;17.20;59.90
5520;DHT22;2782;52.362;10.012;2022-12-07T05:29:06;17.20;59.90
5520;DHT22;2782;52.362;10.012;2022-12-07T05:30:08;17.20;59.90
5520;DHT22;2782;52.362;10.012;2022-12-07T05:31:09;17.20;59.90
5520;DHT22;2782;52.362;10.012;2022-12-07T05:32:11;17.20;59.80
5520;DHT22;2782;52.362;10.012;2022-12-07T05:33:11;17.20;59.80
5520;DHT22;2782;52.362;10.012;2022-12-07T05:34:15;17.20;59.80
5520;DHT22;2782;52.362;10.012;2022-12-07T05:35:16;17.20;59.80
5520;DHT22;2782;52.362;10.012;2022-12-07T05:36:18;17.20;59.80
5520;DHT22;2782;52.362;10.012;2022-12-07T05:37:18;17.30;59.80
5520;DHT22;2782;52.362;10.012;2022-12-07T05:38:20;17.30;59.80
5520;DHT22;2782;52.362;10.012;2022-12-07T05:39:21;17.30;59.80
5520;DHT22;2782;52.362;10.012;2022-12-07T05:40:23;17.30;59.80
5520;DHT22;2782;52.362;10.012;2022-12-07T05:41:23;17.30;59.70
5520;DHT22;2782;52.362;10.012;2022-12-07T05:42:42;17.30;59.70
5520;DHT22;2782;52.362;10.012;2022-12-07T05:43:44;17.30;59.70
5520;DHT22;2782;52.362;10.012;2022-12-07T05:44:46;17.30;59.70
5520;DHT22;2782;52.362;10.012;2022-12-07T05:45:48;17.30;59.70
5520;DHT22;2782;52.362;10.012;2022-12-07T05:46:48;17.30;59.60
5520;DHT22;2782;52.362;10.012;2022-12-07T05:47:50;17.30;59.60
5520;DHT22;2782;52.362;10.012;2022-12-07T05:48:51;17.30;60.30
5520;DHT22;2782;52.362;10.012;2022-12-07T05:49:54;17.30;59.90
5520;DHT22;2782;52.362;10.012;2022-12-07T05:50:56;17.40;61.30
5520;DHT22;2782;52.362;10.012;2022-12-07T05:51:57;17.40;62.40
5520;DHT22;2782;52.362;10.012;2022-12-07T05:52:59;17.40;63.10
5520;DHT22;2782;52.362;10.012;2022-12-07T05:53:59;17.40;63.30
5520;DHT22;2782;52.362;10.012;2022-12-07T05:55:01;17.40;63.90
5520;DHT22;2782;52.362;10.012;2022-12-07T05:56:03;17.40;63.90
5520;DHT22;2782;52.362;10.012;2022-12-07T05:57:04;17.40;64.40
5520;DHT22;2782;52.362;10.012;2022-12-07T05:58:06;17.40;64.70
5520;DHT22;2782;52.362;10.012;2022-12-07T05:59:25;17.40;65.40
5520;DHT22;2782;52.362;10.012;2022-12-07T06:00:27;17.50;66.30
5520;DHT22;2782;52.362;10.012;2022-12-07T06:01:28;17.50;66.40
5520;DHT22;2782;52.362;10.012;2022-12-07T06:02:30;17.50;66.30
5520;DHT22;2782;52.362;10.012;2022-12-07T06:03:32;17.50;66.50
5520;DHT22;2782;52.362;10.012;2022-12-07T06:04:34;17.50;66.90
5520;DHT22;2782;52.362;10.012;2022-12-07T06:05:38;17.50;66.90
5520;DHT22;2782;52.362;10.012;2022-12-07T06:06:38;17.50;66.90
5520;DHT22;2782;52.362;10.012;2022-12-07T06:07:40;17.50;67.10
5520;DHT22;2782;52.362;10.012;2022-12-07T06:08:42;17.50;67.30
5520;DHT22;2782;52.362;10.012;2022-12-07T06:09:43;17.60;67.40
5520;DHT22;2782;52.362;10.012;2022-12-07T06:10:44;17.50;67.60
5520;DHT22;2782;52.362;10.012;2022-12-07T06:11:47;17.50;68.30
5520;DHT22;2782;52.362;10.012;2022-12-07T06:13:07;17.60;68.90
5520;DHT22;2782;52.362;10.012;2022-12-07T06:14:07;17.50;68.80
5520;DHT22;2782;52.362;10.012;2022-12-07T06:15:10;17.50;68.60
5520;DHT22;2782;52.362;10.012;2022-12-07T06:16:13;17.60;68.70
5520;DHT22;2782;52.362;10.012;2022-12-07T06:17:14;17.50;68.60
5520;DHT22;2782;52.362;10.012;2022-12-07T06:18:16;17.50;68.70
5520;DHT22;2782;52.362;10.012;2022-12-07T06:19:17;17.50;68.90
5520;DHT22;2782;52.362;10.012;2022-12-07T06:20:19;17.60;69.10
5520;DHT22;2782;52.362;10.012;2022-12-07T06:21:21;17.60;69.30
5520;DHT22;2782;52.362;10.012;2022-12-07T06:22:22;17.60;69.30
5520;DHT22;2782;52.362;10.012;2022-12-07T06:23:24;17.60;69.40
5520;DHT22;2782;52.362;10.012;2022-12-07T06:24:25;17.60;69.40
5520;DHT22;2782;52.362;10.012;2022-12-07T06:25:27;17.60;69.40
5520;DHT22;2782;52.362;10.012;2022-12-07T06:26:27;17.60;69.50
5520;DHT22;2782;52.362;10.012;2022-12-07T06:27:29;17.60;69.40
5520;DHT22;2782;52.362;10.012;2022-12-07T06:28:33;17.60;69.10
5520;DHT22;2782;52.362;10.012;2022-12-07T06:29:33;17.60;68.90
5520;DHT22;2782;52.362;10.012;2022-12-07T06:30:35;17.60;68.80
5520;DHT22;2782;52.362;10.012;2022-12-07T06:31:37;17.60;68.80
5520;DHT22;2782;52.362;10.012;2022-12-07T06:32:38;17.70;68.80
5520;DHT22;2782;52.362;10.012;2022-12-07T06:33:40;17.70;68.80
5520;DHT22;2782;52.362;10.012;2022-12-07T06:34:41;17.70;68.60
5520;DHT22;2782;52.362;10.012;2022-12-07T06:35:43;17.70;68.50
5520;DHT22;2782;52.362;10.012;2022-12-07T06:36:45;17.70;68.40
5520;DHT22;2782;52.362;10.012;2022-12-07T06:37:51;17.70;68.40
5520;DHT22;2782;52.362;10.012;2022-12-07T06:38:52;17.70;68.30
5520;DHT22;2782;52.362;10.012;2022-12-07T06:39:54;17.70;68.30
5520;DHT22;2782;52.362;10.012;2022-12-07T06:40:56;17.70;68.20
5520;DHT22;2782;52.362;10.012;2022-12-07T06:41:57;17.70;68.10
5520;DHT22;2782;52.362;10.012;2022-12-07T06:42:59;17.70;68.00
5520;DHT22;2782;52.362;10.012;2022-12-07T06:44:00;17.70;67.90
5520;DHT22;2782;52.362;10.012;2022-12-07T06:45:01;17.70;67.70
5520;DHT22;2782;52.362;10.012;2022-12-07T06:46:03;17.70;67.60
5520;DHT22;2782;52.362;10.012;2022-12-07T06:47:04;17.70;62.80
5520;DHT22;2782;52.362;10.012;2022-12-07T06:48:08;17.60;57.70
5520;DHT22;2782;52.362;10.012;2022-12-07T06:49:08;17.60;59.40
5520;DHT22;2782;52.362;10.012;2022-12-07T06:50:10;17.50;64.10